createdAt,value
2023-05-05T00:01:33.360Z,21.54
2023-05-05T00:04:00.809Z,21.20
2023-05-05T00:06:31.468Z,21.35
2023-05-05T00:08:58.767Z,21.33
2023-05-05T00:11:26.203Z,21.30
2023-05-05T00:13:53.428Z,21.27
2023-05-05T00:16:20.844Z,21.34
2023-05-05T00:18:48.115Z,20.87
2023-05-05T00:21:15.795Z,21.32
2023-05-05T00:23:43.004Z,21.10
2023-05-05T00:26:10.174Z,21.29
2023-05-05T00:28:38.538Z,20.93
2023-05-05T00:31:05.884Z,21.21
2023-05-05T00:33:33.132Z,20.79
2023-05-05T00:36:00.637Z,20.52
2023-05-05T00:38:27.966Z,21.09
2023-05-05T00:40:55.370Z,20.95
2023-05-05T00:43:22.629Z,21.16
2023-05-05T00:45:55.782Z,21.34
2023-05-05T00:48:25.590Z,21.02
2023-05-05T00:50:52.959Z,21.47
2023-05-05T00:53:20.322Z,21.12
2023-05-05T00:55:47.675Z,21.26
2023-05-05T00:58:15.072Z,21.22
2023-05-05T01:00:42.619Z,21.22
2023-05-05T01:03:09.979Z,21.38
2023-05-05T01:05:51.560Z,21.23
2023-05-05T01:08:27.701Z,21.23
2023-05-05T01:11:01.340Z,21.33
2023-05-05T01:13:42.909Z,21.04
2023-05-05T01:16:24.094Z,20.66
2023-05-05T01:19:11.582Z,21.35
2023-05-05T01:21:41.420Z,21.20
2023-05-05T01:24:08.616Z,20.96
2023-05-05T01:26:36.036Z,21.07
2023-05-05T01:29:12.195Z,21.31
2023-05-05T01:32:08.742Z,20.98
2023-05-05T01:34:39.184Z,21.33
2023-05-05T01:37:06.372Z,21.02
2023-05-05T01:39:35.074Z,20.91
2023-05-05T01:42:04.913Z,21.35
2023-05-05T01:44:33.873Z,21.21
2023-05-05T01:47:01.567Z,21.08
2023-05-05T01:49:29.204Z,21.60
2023-05-05T01:51:58.973Z,21.09
2023-05-05T01:54:27.240Z,20.88
2023-05-05T01:56:57.395Z,20.79
2023-05-05T01:59:25.642Z,20.96
2023-05-05T02:01:53.327Z,21.34
2023-05-05T02:04:22.917Z,21.35
2023-05-05T02:06:53.233Z,21.14
2023-05-05T02:09:21.631Z,21.02
2023-05-05T02:11:49.194Z,21.25
2023-05-05T02:14:17.173Z,21.06
2023-05-05T02:16:44.427Z,21.11
2023-05-05T02:19:12.333Z,21.20
2023-05-05T02:21:39.682Z,21.33
2023-05-05T02:24:07.883Z,21.02
2023-05-05T02:26:38.705Z,20.96
2023-05-05T02:29:08.045Z,21.10
2023-05-05T02:31:39.115Z,21.15
2023-05-05T02:34:07.471Z,20.70
2023-05-05T02:36:38.007Z,20.76
2023-05-05T02:39:14.476Z,20.59
2023-05-05T02:41:44.409Z,20.96
2023-05-05T02:44:23.397Z,20.91
2023-05-05T02:46:51.380Z,20.78
2023-05-05T02:49:19.421Z,20.88
2023-05-05T02:51:46.893Z,20.56
2023-05-05T02:54:23.656Z,21.01
2023-05-05T02:56:53.927Z,20.77
2023-05-05T02:59:31.066Z,21.20
2023-05-05T03:02:00.741Z,21.01
2023-05-05T03:04:35.102Z,20.54
2023-05-05T03:07:06.982Z,20.55
2023-05-05T03:09:38.164Z,20.36
2023-05-05T03:12:07.333Z,20.54
2023-05-05T03:14:46.072Z,21.03
2023-05-05T03:17:17.497Z,20.06
2023-05-05T03:19:46.934Z,20.26
2023-05-05T03:22:14.393Z,20.80
2023-05-05T03:24:49.709Z,20.60
2023-05-05T03:27:17.065Z,20.75
2023-05-05T03:29:44.325Z,20.40
2023-05-05T03:32:14.565Z,21.18
2023-05-05T03:34:42.730Z,21.08
2023-05-05T03:37:10.130Z,20.84
2023-05-05T03:39:38.907Z,20.65
2023-05-05T03:42:07.291Z,21.14
2023-05-05T03:44:35.896Z,20.15
2023-05-05T03:47:03.295Z,20.70
2023-05-05T03:49:32.868Z,19.24
2023-05-05T03:52:00.800Z,20.39
2023-05-05T03:54:28.825Z,19.57
2023-05-05T03:56:56.614Z,21.13
2023-05-05T03:59:23.768Z,21.55
2023-05-05T04:01:51.211Z,20.83
2023-05-05T04:04:18.448Z,20.03
2023-05-05T04:06:46.057Z,20.75
2023-05-05T04:09:14.657Z,21.07
2023-05-05T04:11:43.538Z,21.06
2023-05-05T04:14:11.432Z,20.62
2023-05-05T04:16:38.799Z,19.93
2023-05-05T04:19:06.036Z,20.45
2023-05-05T04:21:33.497Z,21.05
2023-05-05T04:24:01.328Z,21.04
2023-05-05T04:26:28.685Z,20.48
2023-05-05T04:28:56.377Z,20.44
2023-05-05T04:31:23.935Z,20.66
2023-05-05T04:33:51.688Z,21.64
2023-05-05T04:36:19.350Z,19.90
2023-05-05T04:38:47.843Z,21.50
2023-05-05T04:41:15.031Z,20.61
2023-05-05T04:43:43.904Z,21.08
2023-05-05T04:46:11.284Z,21.27
2023-05-05T04:48:39.014Z,20.24
2023-05-05T04:51:07.710Z,21.51
2023-05-05T04:53:36.194Z,20.73
2023-05-05T04:56:03.594Z,20.59
2023-05-05T04:58:31.245Z,20.71
2023-05-05T05:00:58.835Z,20.98
2023-05-05T05:03:26.410Z,20.14
2023-05-05T05:05:54.245Z,20.72
2023-05-05T05:08:21.605Z,20.83
2023-05-05T05:10:48.890Z,21.12
2023-05-05T05:13:17.247Z,20.52
2023-05-05T05:15:45.202Z,20.22
2023-05-05T05:18:12.792Z,20.12
2023-05-05T05:20:40.066Z,20.01
2023-05-05T05:23:07.493Z,19.96
2023-05-05T05:25:38.640Z,19.40
2023-05-05T05:28:09.513Z,19.74
2023-05-05T05:30:42.045Z,20.42
2023-05-05T05:33:11.061Z,20.09
2023-05-05T05:35:39.700Z,20.52
2023-05-05T05:38:07.388Z,20.46
2023-05-05T05:40:34.593Z,20.19
2023-05-05T05:43:03.245Z,20.93
2023-05-05T05:45:31.426Z,20.13
2023-05-05T05:47:58.794Z,20.95
2023-05-05T05:50:28.662Z,19.84
2023-05-05T05:52:57.072Z,20.28
2023-05-05T05:55:25.289Z,20.38
2023-05-05T05:57:53.253Z,19.78
2023-05-05T06:00:21.295Z,20.93
2023-05-05T06:02:55.501Z,21.18
2023-05-05T06:05:26.190Z,19.21
2023-05-05T06:07:53.916Z,20.65
2023-05-05T06:10:27.937Z,19.99
2023-05-05T06:13:01.615Z,20.76
2023-05-05T06:15:30.424Z,20.42
2023-05-05T06:17:57.886Z,20.37
2023-05-05T06:20:25.248Z,19.76
2023-05-05T06:22:52.778Z,19.78
2023-05-05T06:25:20.275Z,20.87
2023-05-05T06:27:49.315Z,18.99
2023-05-05T06:30:16.582Z,18.72
2023-05-05T06:32:43.841Z,19.55
2023-05-05T06:35:11.190Z,19.90
2023-05-05T06:37:38.458Z,19.43
2023-05-05T06:40:06.949Z,19.50
2023-05-05T06:42:34.356Z,18.24
2023-05-05T06:45:04.541Z,17.20
2023-05-05T06:47:31.713Z,16.20
2023-05-05T06:49:59.002Z,17.09
2023-05-05T06:52:26.355Z,17.25
2023-05-05T06:54:53.506Z,16.18
2023-05-05T06:57:20.828Z,16.53
2023-05-05T06:59:48.025Z,16.79
2023-05-05T07:02:15.224Z,16.37
2023-05-05T07:04:42.751Z,16.90
2023-05-05T07:07:09.894Z,16.42
2023-05-05T07:09:37.059Z,15.81
2023-05-05T07:12:04.511Z,15.82
2023-05-05T07:14:31.668Z,15.85
2023-05-05T07:16:58.880Z,16.19
2023-05-05T07:19:26.080Z,16.55
2023-05-05T07:21:53.404Z,16.43
2023-05-05T07:24:20.701Z,16.58
2023-05-05T07:26:47.917Z,16.78
2023-05-05T07:29:15.071Z,16.42
2023-05-05T07:31:42.398Z,17.32
2023-05-05T07:34:09.650Z,16.25
2023-05-05T07:36:36.923Z,16.71
2023-05-05T07:39:04.140Z,16.94
2023-05-05T07:41:31.310Z,16.68
2023-05-05T07:43:58.580Z,16.22
2023-05-05T07:46:25.829Z,16.42
2023-05-05T07:48:53.179Z,16.39
2023-05-05T07:51:21.558Z,16.60
2023-05-05T07:53:48.744Z,16.15
2023-05-05T07:56:16.010Z,16.31
2023-05-05T07:58:43.265Z,16.89
2023-05-05T08:01:11.351Z,16.79
2023-05-05T08:03:38.753Z,17.72
2023-05-05T08:06:07.672Z,17.04
2023-05-05T08:08:34.847Z,17.43
2023-05-05T08:11:02.455Z,18.22
2023-05-05T08:13:30.463Z,17.74
2023-05-05T08:15:57.680Z,19.18
2023-05-05T08:18:25.069Z,20.01
2023-05-05T08:20:53.074Z,17.66
2023-05-05T08:23:20.326Z,16.94
2023-05-05T08:25:47.557Z,17.66
2023-05-05T08:28:14.821Z,18.09
2023-05-05T08:30:42.996Z,17.38
2023-05-05T08:33:10.373Z,18.43
2023-05-05T08:35:37.730Z,17.70
2023-05-05T08:38:05.021Z,18.39
2023-05-05T08:40:36.556Z,18.23
2023-05-05T08:43:04.057Z,18.05
2023-05-05T08:45:31.804Z,17.68
2023-05-05T08:48:03.163Z,18.91
2023-05-05T08:50:31.031Z,18.18
2023-05-05T08:53:18.518Z,16.90
2023-05-05T08:55:50.064Z,16.21
2023-05-05T08:58:21.358Z,16.27
2023-05-05T09:00:50.068Z,16.53
2023-05-05T09:03:17.761Z,16.05
2023-05-05T09:05:45.140Z,16.19
2023-05-05T09:08:12.390Z,17.59
2023-05-05T09:10:43.278Z,16.53
2023-05-05T09:13:10.902Z,16.69
2023-05-05T09:15:58.452Z,15.77
2023-05-05T09:18:26.249Z,15.92
2023-05-05T09:20:53.560Z,16.13
2023-05-05T09:23:21.480Z,15.20
2023-05-05T09:26:04.429Z,16.25
2023-05-05T09:28:32.153Z,15.92
2023-05-05T09:31:12.331Z,15.77
2023-05-05T09:33:39.715Z,15.98
2023-05-05T09:36:06.929Z,16.64
2023-05-05T09:38:34.795Z,17.39
2023-05-05T09:41:02.040Z,17.67
2023-05-05T09:43:29.224Z,17.72
2023-05-05T09:46:08.704Z,18.40
2023-05-05T09:48:36.162Z,19.11
2023-05-05T09:51:03.926Z,19.23
2023-05-05T09:53:38.397Z,18.44
2023-05-05T09:56:05.918Z,18.88
2023-05-05T09:58:33.226Z,19.16
2023-05-05T10:01:00.801Z,18.60
2023-05-05T10:03:28.015Z,18.69
2023-05-05T10:05:56.529Z,17.96
2023-05-05T10:08:25.103Z,17.98
2023-05-05T10:10:52.555Z,18.95
2023-05-05T10:13:21.064Z,19.68
2023-05-05T10:15:50.181Z,18.56
2023-05-05T10:18:22.192Z,19.06
2023-05-05T10:20:53.221Z,18.46
2023-05-05T10:23:22.816Z,20.35
2023-05-05T10:25:52.172Z,19.86
2023-05-05T10:28:23.340Z,19.05
2023-05-05T10:30:53.738Z,17.49
2023-05-05T10:35:53.637Z,16.83
2023-05-05T10:38:21.301Z,18.56
2023-05-05T10:40:48.917Z,17.65
2023-05-05T10:43:17.088Z,18.75
2023-05-05T10:45:44.802Z,18.67
2023-05-05T10:48:14.284Z,17.65
2023-05-05T10:50:44.957Z,17.97
2023-05-05T10:53:28.331Z,16.66
2023-05-05T10:56:11.037Z,16.17
2023-05-05T10:58:55.639Z,16.17
2023-05-05T11:01:31.303Z,16.84
2023-05-05T11:04:37.245Z,16.53
2023-05-05T11:07:13.813Z,16.39
2023-05-05T11:10:14.391Z,16.20
2023-05-05T11:13:03.153Z,17.46
2023-05-05T11:15:30.634Z,17.96
2023-05-05T11:17:58.559Z,18.29
2023-05-05T11:20:39.674Z,18.60
2023-05-05T11:23:07.223Z,18.63
2023-05-05T11:25:34.508Z,18.51
2023-05-05T11:28:08.334Z,19.75
2023-05-05T11:30:36.293Z,19.25
2023-05-05T11:33:22.429Z,19.58
2023-05-05T11:35:56.357Z,19.82
2023-05-05T11:38:38.888Z,19.33
2023-05-05T11:41:12.447Z,19.92
2023-05-05T11:43:42.858Z,19.33
2023-05-05T11:46:16.860Z,19.61
2023-05-05T11:48:46.091Z,19.78
2023-05-05T11:51:13.976Z,19.80
2023-05-05T11:53:45.140Z,18.90
2023-05-05T11:56:18.826Z,20.31
2023-05-05T11:58:46.827Z,19.68
2023-05-05T12:01:14.586Z,19.46
2023-05-05T12:03:42.202Z,19.56
2023-05-05T12:06:09.549Z,19.32
2023-05-05T12:08:37.631Z,19.51
2023-05-05T12:11:05.508Z,19.65
2023-05-05T12:13:32.706Z,18.50
2023-05-05T12:16:13.084Z,19.46
2023-05-05T12:18:40.898Z,20.01
2023-05-05T12:21:34.360Z,20.22
2023-05-05T12:24:01.639Z,20.65
2023-05-05T12:26:30.149Z,19.71
2023-05-05T12:28:58.038Z,20.09
2023-05-05T12:31:37.990Z,20.33
2023-05-05T12:34:06.440Z,19.24
2023-05-05T12:36:34.123Z,18.80
2023-05-05T12:39:01.739Z,18.92
2023-05-05T12:41:28.977Z,18.24
2023-05-05T12:43:59.517Z,19.76
2023-05-05T12:46:27.340Z,19.86
2023-05-05T12:49:05.409Z,19.17
2023-05-05T12:51:33.694Z,20.06
2023-05-05T12:54:02.326Z,20.15
2023-05-05T12:56:35.672Z,19.67
2023-05-05T12:59:03.964Z,19.48
2023-05-05T13:01:31.374Z,20.43
2023-05-05T13:04:12.196Z,19.88
2023-05-05T13:06:40.263Z,20.08
2023-05-05T13:09:07.785Z,19.64
2023-05-05T13:11:36.379Z,20.06
2023-05-05T13:14:03.844Z,19.55
2023-05-05T13:16:31.292Z,19.33
2023-05-05T13:18:58.473Z,19.78
2023-05-05T13:21:26.104Z,20.05
2023-05-05T13:23:53.958Z,19.17
2023-05-05T13:26:21.445Z,20.10
2023-05-05T13:28:48.990Z,19.84
2023-05-05T13:31:16.391Z,19.49
2023-05-05T13:33:43.752Z,18.92
2023-05-05T13:36:10.955Z,18.79
2023-05-05T13:38:38.245Z,19.04
2023-05-05T13:41:05.506Z,19.66
2023-05-05T13:43:32.757Z,20.68
2023-05-05T13:46:12.302Z,20.36
2023-05-05T13:48:43.683Z,18.90
2023-05-05T13:51:11.236Z,18.49
2023-05-05T13:53:39.948Z,19.81
2023-05-05T13:56:07.472Z,19.25
2023-05-05T13:58:37.173Z,19.75
2023-05-05T14:01:04.865Z,19.68
2023-05-05T14:03:32.083Z,19.63
2023-05-05T14:05:59.815Z,19.59
2023-05-05T14:08:27.392Z,20.30
2023-05-05T14:10:54.644Z,19.76
2023-05-05T14:13:21.836Z,20.05
2023-05-05T14:15:50.750Z,20.02
2023-05-05T14:18:17.924Z,19.38
2023-05-05T14:20:45.115Z,19.57
2023-05-05T14:23:12.265Z,18.89
2023-05-05T14:25:39.424Z,19.51
2023-05-05T14:28:07.222Z,19.57
2023-05-05T14:30:34.431Z,20.15
2023-05-05T14:33:01.661Z,19.98
2023-05-05T14:35:29.200Z,19.05
2023-05-05T14:37:56.400Z,18.90
2023-05-05T14:40:23.683Z,20.05
2023-05-05T14:42:51.139Z,19.31
2023-05-05T14:45:18.397Z,18.75
2023-05-05T14:47:45.600Z,19.16
2023-05-05T14:50:14.249Z,19.57
2023-05-05T14:52:41.543Z,20.20
2023-05-05T14:55:09.260Z,19.83
2023-05-05T14:57:38.312Z,19.52
2023-05-05T15:00:08.501Z,19.10
2023-05-05T15:02:35.878Z,19.54
2023-05-05T15:05:03.294Z,19.93
2023-05-05T15:07:30.726Z,19.80
2023-05-05T15:09:57.878Z,18.46
2023-05-05T15:12:26.085Z,18.19
2023-05-05T15:14:53.265Z,19.34
2023-05-05T15:17:20.494Z,19.38
2023-05-05T15:19:47.736Z,19.32
2023-05-05T15:22:14.948Z,19.19
2023-05-05T15:24:42.203Z,19.44
2023-05-05T15:27:09.450Z,19.68
2023-05-05T15:29:36.764Z,19.36
2023-05-05T15:32:04.109Z,19.37
2023-05-05T15:34:31.425Z,19.79
2023-05-05T15:36:58.634Z,20.24
2023-05-05T15:39:25.844Z,19.97
2023-05-05T15:41:53.035Z,20.18
2023-05-05T15:44:20.322Z,19.86
2023-05-05T15:46:50.237Z,19.92
2023-05-05T15:49:17.746Z,19.65
2023-05-05T15:51:44.939Z,20.05
2023-05-05T15:54:12.190Z,19.08
2023-05-05T15:56:39.458Z,19.44
2023-05-05T15:59:07.138Z,20.12
2023-05-05T16:01:36.340Z,20.22
2023-05-05T16:04:03.743Z,19.14
2023-05-05T16:06:31.036Z,17.82
2023-05-05T16:08:58.764Z,19.90
2023-05-05T16:11:26.644Z,19.30
2023-05-05T16:13:53.911Z,20.12
2023-05-05T16:16:21.331Z,20.32
2023-05-05T16:18:48.631Z,19.72
2023-05-05T16:21:15.834Z,20.36
2023-05-05T16:23:43.446Z,19.70
2023-05-05T16:26:10.637Z,19.96
2023-05-05T16:28:38.055Z,19.84
2023-05-05T16:31:05.565Z,19.83
2023-05-05T16:33:32.757Z,18.83
2023-05-05T16:35:59.945Z,19.83
2023-05-05T16:38:27.170Z,19.57
2023-05-05T16:40:54.422Z,19.43
2023-05-05T16:43:21.575Z,19.22
2023-05-05T16:45:48.772Z,19.84
2023-05-05T16:48:17.607Z,19.86
2023-05-05T16:50:45.066Z,18.83
2023-05-05T16:53:12.331Z,19.49
2023-05-05T16:55:39.541Z,19.53
2023-05-05T16:58:06.805Z,18.91
2023-05-05T17:00:34.184Z,19.28
2023-05-05T17:03:01.383Z,19.47
2023-05-05T17:05:28.664Z,19.30
2023-05-05T17:07:55.903Z,19.21
2023-05-05T17:10:23.339Z,19.79
2023-05-05T17:12:50.625Z,18.39
2023-05-05T17:15:17.924Z,19.87
2023-05-05T17:17:45.187Z,20.18
2023-05-05T17:20:12.714Z,18.97
2023-05-05T17:22:40.009Z,18.32
2023-05-05T17:25:07.544Z,20.22
2023-05-05T17:27:34.838Z,19.81
2023-05-05T17:30:02.103Z,19.79
2023-05-05T17:32:29.621Z,19.70
2023-05-05T17:34:57.022Z,20.26
2023-05-05T17:37:24.204Z,18.68
2023-05-05T17:39:51.425Z,20.31
2023-05-05T17:42:22.856Z,20.20
2023-05-05T17:44:50.253Z,19.89
2023-05-05T17:47:22.251Z,20.39
2023-05-05T17:49:49.885Z,20.11
2023-05-05T17:52:17.124Z,20.05
2023-05-05T17:54:44.392Z,20.12
2023-05-05T17:57:12.704Z,19.98
2023-05-05T17:59:39.895Z,19.18
2023-05-05T18:02:07.279Z,19.83
2023-05-05T18:04:36.193Z,19.61
2023-05-05T18:07:03.565Z,19.67
2023-05-05T18:09:31.318Z,20.32
2023-05-05T18:11:58.495Z,20.32
2023-05-05T18:14:25.834Z,19.78
2023-05-05T18:16:53.096Z,20.31
2023-05-05T18:19:21.276Z,20.24
2023-05-05T18:21:48.988Z,20.18
2023-05-05T18:24:20.524Z,18.90
2023-05-05T18:26:50.007Z,19.91
2023-05-05T18:29:21.724Z,19.60
2023-05-05T18:31:51.929Z,20.24
2023-05-05T18:34:20.578Z,20.42
2023-05-05T18:36:47.940Z,20.03
2023-05-05T18:39:15.336Z,19.99
2023-05-05T18:41:42.563Z,19.76
2023-05-05T18:44:10.446Z,20.01
2023-05-05T18:46:37.728Z,19.09
2023-05-05T18:49:05.115Z,18.97
2023-05-05T18:51:32.376Z,19.78
2023-05-05T18:54:00.898Z,19.86
2023-05-05T18:56:28.176Z,19.95
2023-05-05T18:58:55.704Z,19.39
2023-05-05T19:01:23.473Z,19.99
2023-05-05T19:03:50.781Z,19.96
2023-05-05T19:06:18.126Z,19.81
2023-05-05T19:08:45.648Z,20.22
2023-05-05T19:11:14.818Z,19.95
2023-05-05T19:13:42.493Z,19.96
2023-05-05T19:16:11.280Z,19.76
2023-05-05T19:18:39.293Z,19.42
2023-05-05T19:21:06.549Z,19.66
2023-05-05T19:23:36.039Z,19.67
2023-05-05T19:26:06.056Z,19.51
2023-05-05T19:28:33.385Z,19.91
2023-05-05T19:31:00.690Z,19.97
2023-05-05T19:33:27.999Z,19.60
2023-05-05T19:35:55.354Z,19.84
2023-05-05T19:38:22.692Z,19.52
2023-05-05T19:40:50.503Z,19.64
2023-05-05T19:43:17.660Z,19.88
2023-05-05T19:45:44.941Z,19.69
2023-05-05T19:48:12.187Z,19.00
2023-05-05T19:50:39.486Z,19.57
2023-05-05T19:53:06.713Z,18.79
2023-05-05T19:55:33.893Z,19.13
2023-05-05T19:58:01.113Z,19.81
2023-05-05T20:00:28.428Z,19.80
2023-05-05T20:02:55.655Z,19.62
2023-05-05T20:05:22.871Z,19.24
2023-05-05T20:07:50.592Z,19.28
2023-05-05T20:10:17.981Z,20.03
2023-05-05T20:12:48.461Z,19.98
2023-05-05T20:15:19.082Z,18.54
2023-05-05T20:17:46.989Z,19.63
2023-05-05T20:20:18.850Z,19.69
2023-05-05T20:22:46.682Z,19.34
2023-05-05T20:25:16.098Z,18.90
2023-05-05T20:27:43.764Z,19.05
2023-05-05T20:30:12.035Z,19.73
2023-05-05T20:32:39.567Z,19.42
2023-05-05T20:35:07.488Z,19.87
2023-05-05T20:37:34.689Z,18.95
2023-05-05T20:40:01.907Z,20.15
2023-05-05T20:42:29.862Z,19.63
2023-05-05T20:44:57.225Z,19.22
2023-05-05T20:47:24.929Z,19.65
2023-05-05T20:49:52.544Z,19.57
2023-05-05T20:52:19.937Z,19.05
2023-05-05T20:54:47.092Z,19.70
2023-05-05T20:57:14.286Z,19.53
2023-05-05T20:59:41.610Z,19.45
2023-05-05T21:02:09.138Z,19.72
2023-05-05T21:04:36.416Z,19.14
2023-05-05T21:07:03.631Z,19.71
2023-05-05T21:09:31.573Z,18.86
2023-05-05T21:11:58.910Z,19.74
2023-05-05T21:14:26.167Z,19.32
2023-05-05T21:16:53.387Z,19.52
2023-05-05T21:19:21.290Z,20.04
2023-05-05T21:21:48.620Z,19.90
2023-05-05T21:24:15.832Z,19.75
2023-05-05T21:26:44.234Z,20.21
2023-05-05T21:29:11.699Z,19.80
2023-05-05T21:31:39.006Z,18.58
2023-05-05T21:34:06.218Z,19.62
2023-05-05T21:36:34.063Z,19.61
2023-05-05T21:39:01.346Z,19.63
2023-05-05T21:41:28.478Z,19.90
2023-05-05T21:43:55.814Z,20.18
2023-05-05T21:46:23.214Z,20.04
2023-05-05T21:48:50.513Z,19.76
2023-05-05T21:51:17.730Z,20.21
2023-05-05T21:53:44.906Z,20.12
2023-05-05T21:56:12.058Z,19.90
2023-05-05T21:58:41.069Z,19.20
2023-05-05T22:01:08.285Z,19.04
2023-05-05T22:03:36.173Z,19.78
2023-05-05T22:06:03.449Z,20.17
2023-05-05T22:08:30.661Z,18.75
2023-05-05T22:10:57.840Z,19.49
2023-05-05T22:13:25.077Z,20.19
2023-05-05T22:15:52.283Z,20.00
2023-05-05T22:18:19.532Z,20.38
2023-05-05T22:20:47.061Z,20.38
2023-05-05T22:23:14.316Z,19.42
2023-05-05T22:25:41.587Z,20.08
2023-05-05T22:28:08.849Z,20.21
2023-05-05T22:30:36.119Z,20.16
2023-05-05T22:33:03.785Z,19.97
2023-05-05T22:35:31.252Z,19.47
2023-05-05T22:37:59.471Z,19.32
2023-05-05T22:40:26.621Z,20.19
2023-05-05T22:42:53.835Z,19.83
2023-05-05T22:45:21.931Z,19.57
2023-05-05T22:47:49.564Z,18.78
2023-05-05T22:50:16.771Z,19.88
2023-05-05T22:52:44.097Z,19.90
2023-05-05T22:55:14.076Z,19.66
2023-05-05T22:57:41.888Z,20.48
2023-05-05T23:00:10.583Z,19.42
2023-05-05T23:02:37.962Z,19.66
2023-05-05T23:05:05.457Z,20.21
2023-05-05T23:07:32.764Z,19.81
2023-05-05T23:10:00.002Z,19.16
2023-05-05T23:12:27.193Z,20.22
2023-05-05T23:14:54.415Z,19.87
2023-05-05T23:17:21.735Z,19.76
2023-05-05T23:19:49.466Z,19.28
2023-05-05T23:22:16.712Z,19.50
2023-05-05T23:24:43.862Z,19.46
2023-05-05T23:27:12.884Z,19.08
2023-05-05T23:29:40.103Z,19.35
2023-05-05T23:32:07.401Z,18.88
2023-05-05T23:34:34.553Z,19.31
2023-05-05T23:37:02.541Z,19.19
2023-05-05T23:39:33.054Z,19.03
2023-05-05T23:42:00.266Z,19.81
2023-05-05T23:44:27.792Z,20.05
2023-05-05T23:46:55.029Z,20.08
2023-05-05T23:49:23.823Z,20.02
2023-05-05T23:51:51.008Z,19.24
2023-05-05T23:54:18.486Z,19.57
2023-05-05T23:56:47.801Z,19.69
2023-05-05T23:59:15.013Z,19.85
